createdAt,value
2023-03-08T00:00:01.135Z,997.75
2023-03-08T00:01:01.140Z,997.77
2023-03-08T00:02:01.515Z,997.78
2023-03-08T00:03:01.279Z,997.79
2023-03-08T00:04:01.202Z,997.8
2023-03-08T00:05:02.257Z,997.8
2023-03-08T00:06:01.173Z,997.73
2023-03-08T00:07:01.155Z,997.72
2023-03-08T00:08:01.088Z,997.71
2023-03-08T00:09:01.093Z,997.69
2023-03-08T00:10:01.096Z,997.68
2023-03-08T00:11:01.078Z,997.67
2023-03-08T00:12:01.116Z,997.71
2023-03-08T00:13:01.405Z,997.66
2023-03-08T00:14:01.246Z,997.7
2023-03-08T00:15:01.669Z,997.71
2023-03-08T00:16:01.079Z,997.65
2023-03-08T00:17:01.335Z,997.63
2023-03-08T00:18:01.245Z,997.67
2023-03-08T00:19:01.941Z,997.69
2023-03-08T00:20:01.179Z,997.65
2023-03-08T00:21:01.489Z,997.69
2023-03-08T00:22:01.293Z,997.72
2023-03-08T00:23:02.362Z,997.77
2023-03-08T00:24:02.367Z,997.78
2023-03-08T00:25:02.353Z,997.76
2023-03-08T00:26:01.221Z,997.74
2023-03-08T00:27:01.089Z,997.77
2023-03-08T00:28:01.102Z,997.79
2023-03-08T00:29:01.190Z,997.84
2023-03-08T00:30:01.155Z,997.81
2023-03-08T00:31:01.154Z,997.8
2023-03-08T00:32:01.129Z,997.79
2023-03-08T00:33:01.619Z,997.83
2023-03-08T00:34:01.168Z,997.85
2023-03-08T00:35:01.144Z,997.87
2023-03-08T00:36:01.140Z,997.89
2023-03-08T00:37:01.166Z,997.94
2023-03-08T00:38:01.164Z,997.95
2023-03-08T00:39:01.172Z,997.93
2023-03-08T00:40:01.899Z,997.92
2023-03-08T00:41:01.985Z,997.93
2023-03-08T00:42:01.198Z,997.88
2023-03-08T00:43:01.092Z,997.93
2023-03-08T00:44:01.220Z,997.89
2023-03-08T00:45:01.125Z,997.89
2023-03-08T00:46:01.116Z,997.88
2023-03-08T00:47:01.147Z,997.89
2023-03-08T00:48:01.117Z,997.92
2023-03-08T00:49:01.134Z,997.88
2023-03-08T00:50:01.177Z,997.8
2023-03-08T00:51:01.351Z,997.81
2023-03-08T00:52:01.963Z,997.81
2023-03-08T00:53:02.693Z,997.86
2023-03-08T00:54:01.182Z,997.87
2023-03-08T00:55:01.238Z,997.86
2023-03-08T00:56:01.125Z,997.88
2023-03-08T00:57:01.081Z,997.9
2023-03-08T00:58:01.155Z,997.89
2023-03-08T00:59:01.937Z,997.91
2023-03-08T01:00:08.048Z,997.93
2023-03-08T01:01:01.146Z,997.97
2023-03-08T01:02:01.875Z,997.97
2023-03-08T01:03:01.205Z,998.06
2023-03-08T01:04:01.184Z,998.04
2023-03-08T01:05:02.038Z,998.07
2023-03-08T01:06:01.570Z,998.1
2023-03-08T01:07:01.259Z,998.03
2023-03-08T01:08:01.154Z,998.01
2023-03-08T01:09:01.153Z,998.06
2023-03-08T01:10:01.164Z,997.95
2023-03-08T01:11:05.243Z,997.95
2023-03-08T01:12:01.970Z,998.02
2023-03-08T01:13:01.864Z,998.02
2023-03-08T01:14:00.781Z,998.03
2023-03-08T01:15:00.463Z,998.11
2023-03-08T01:16:11.097Z,998.1
2023-03-08T01:17:01.101Z,998.07
2023-03-08T01:18:01.095Z,998.11
2023-03-08T01:19:01.123Z,998.12
2023-03-08T01:20:01.554Z,998.15
2023-03-08T01:21:13.071Z,998.1
2023-03-08T01:22:01.325Z,998.13
2023-03-08T01:23:01.153Z,998.15
2023-03-08T01:24:01.166Z,998.14
2023-03-08T01:25:01.141Z,998.13
2023-03-08T01:26:15.175Z,998.14
2023-03-08T01:27:01.170Z,998.2
2023-03-08T01:28:01.413Z,998.14
2023-03-08T01:29:01.471Z,998.16
2023-03-08T01:30:01.083Z,998.18
2023-03-08T01:31:01.071Z,998.13
2023-03-08T01:32:01.084Z,998.15
2023-03-08T01:33:01.075Z,998.17
2023-03-08T01:34:01.076Z,998.16
2023-03-08T01:35:01.045Z,998.18
2023-03-08T01:36:01.176Z,998.12
2023-03-08T01:37:01.508Z,998.14
2023-03-08T01:38:01.139Z,998.16
2023-03-08T01:39:01.143Z,998.2
2023-03-08T01:40:01.129Z,998.18
2023-03-08T01:41:01.792Z,998.19
2023-03-08T01:42:01.455Z,998.21
2023-03-08T01:43:02.596Z,998.24
2023-03-08T01:44:01.182Z,998.28
2023-03-08T01:45:01.217Z,998.26
2023-03-08T01:46:01.236Z,998.27
2023-03-08T01:47:01.077Z,998.25
2023-03-08T01:48:01.089Z,998.25
2023-03-08T01:49:01.090Z,998.32
2023-03-08T01:50:01.336Z,998.38
2023-03-08T01:51:02.707Z,998.36
2023-03-08T01:52:01.366Z,998.32
2023-03-08T01:53:01.354Z,998.36
2023-03-08T01:54:01.359Z,998.41
2023-03-08T01:55:02.145Z,998.41
2023-03-08T01:56:02.049Z,998.4
2023-03-08T01:57:01.139Z,998.36
2023-03-08T01:58:01.159Z,998.29
2023-03-08T01:59:01.162Z,998.36
2023-03-08T02:00:01.178Z,998.34
2023-03-08T02:01:01.070Z,998.33
2023-03-08T02:02:01.492Z,998.32
2023-03-08T02:03:01.198Z,998.36
2023-03-08T02:04:01.199Z,998.38
2023-03-08T02:05:01.089Z,998.4
2023-03-08T02:06:01.092Z,998.39
2023-03-08T02:07:01.142Z,998.45
2023-03-08T02:08:01.148Z,998.47
2023-03-08T02:09:01.125Z,998.49
2023-03-08T02:10:01.523Z,998.56
2023-03-08T02:11:01.193Z,998.57
2023-03-08T02:12:02.047Z,998.53
2023-03-08T02:13:01.452Z,998.55
2023-03-08T02:14:01.238Z,998.55
2023-03-08T02:15:01.223Z,998.55
2023-03-08T02:16:02.774Z,998.54
2023-03-08T02:17:01.179Z,998.56
2023-03-08T02:18:01.100Z,998.53
2023-03-08T02:19:01.898Z,998.53
2023-03-08T02:20:01.134Z,998.52
2023-03-08T02:21:01.090Z,998.58
2023-03-08T02:22:01.093Z,998.6
2023-03-08T02:23:01.154Z,998.58
2023-03-08T02:24:01.112Z,998.57
2023-03-08T02:25:01.123Z,998.61
2023-03-08T02:26:01.141Z,998.52
2023-03-08T02:27:01.541Z,998.52
2023-03-08T02:28:01.270Z,998.56
2023-03-08T02:29:01.146Z,998.59
2023-03-08T02:30:01.141Z,998.6
2023-03-08T02:31:01.160Z,998.59
2023-03-08T02:32:01.164Z,998.53
2023-03-08T02:33:01.976Z,998.53
2023-03-08T02:34:02.562Z,998.53
2023-03-08T02:35:01.368Z,998.56
2023-03-08T02:36:01.472Z,998.54
2023-03-08T02:37:01.060Z,998.57
2023-03-08T02:38:01.077Z,998.56
2023-03-08T02:39:01.095Z,998.57
2023-03-08T02:40:01.104Z,998.55
2023-03-08T02:41:01.136Z,998.56
2023-03-08T02:42:01.131Z,998.55
2023-03-08T02:43:01.144Z,998.62
2023-03-08T02:44:00.834Z,998.62
2023-03-08T02:45:00.417Z,998.63
2023-03-08T02:46:00.008Z,998.64
2023-03-08T02:47:02.779Z,998.63
2023-03-08T02:48:01.160Z,998.66
2023-03-08T02:49:01.182Z,998.67
2023-03-08T02:50:01.086Z,998.7
2023-03-08T02:51:01.088Z,998.67
2023-03-08T02:52:05.558Z,998.68
2023-03-08T02:53:01.195Z,998.7
2023-03-08T02:54:01.226Z,998.74
2023-03-08T02:55:02.405Z,998.68
2023-03-08T02:56:02.018Z,998.66
2023-03-08T02:57:08.622Z,998.66
2023-03-08T02:58:01.121Z,998.63
2023-03-08T02:59:01.150Z,998.62
2023-03-08T03:00:01.135Z,998.65
2023-03-08T03:01:01.166Z,998.66
2023-03-08T03:02:11.316Z,998.66
2023-03-08T03:03:02.068Z,998.65
2023-03-08T03:04:01.267Z,998.62
2023-03-08T03:05:01.163Z,998.58
2023-03-08T03:06:01.121Z,998.63
2023-03-08T03:07:14.327Z,998.63
2023-03-08T03:08:01.095Z,998.6
2023-03-08T03:09:01.119Z,998.67
2023-03-08T03:10:01.093Z,998.67
2023-03-08T03:11:01.474Z,998.67
2023-03-08T03:12:01.132Z,998.68
2023-03-08T03:13:01.082Z,998.64
2023-03-08T03:14:01.178Z,998.66
2023-03-08T03:15:01.128Z,998.67
2023-03-08T03:16:01.178Z,998.66
2023-03-08T03:17:01.125Z,998.67
2023-03-08T03:18:01.580Z,998.58
2023-03-08T03:19:01.273Z,998.59
2023-03-08T03:20:01.179Z,998.58
2023-03-08T03:21:01.509Z,998.54
2023-03-08T03:22:01.295Z,998.52
2023-03-08T03:23:02.597Z,998.56
2023-03-08T03:24:00.887Z,998.62
2023-03-08T03:25:01.063Z,998.53
2023-03-08T03:26:01.077Z,998.56
2023-03-08T03:27:01.450Z,998.55
2023-03-08T03:28:01.053Z,998.53
2023-03-08T03:29:01.130Z,998.56
2023-03-08T03:30:01.133Z,998.56
2023-03-08T03:31:02.049Z,998.56
2023-03-08T03:32:01.528Z,998.57
2023-03-08T03:33:01.916Z,998.57
2023-03-08T03:34:00.731Z,998.58
2023-03-08T03:35:00.537Z,998.61
2023-03-08T03:36:00.282Z,998.59
2023-03-08T03:36:59.972Z,998.63
2023-03-08T03:37:59.879Z,998.63
2023-03-08T03:39:00.140Z,998.65
2023-03-08T03:39:59.861Z,998.67
2023-03-08T03:40:59.634Z,998.66
2023-03-08T03:42:01.372Z,998.61
2023-03-08T03:43:02.508Z,998.59
2023-03-08T03:44:02.054Z,998.63
2023-03-08T03:45:01.133Z,998.62
2023-03-08T03:46:01.078Z,998.61
2023-03-08T03:47:01.172Z,998.65
2023-03-08T03:48:01.118Z,998.65
2023-03-08T03:49:02.027Z,998.64
2023-03-08T03:50:02.063Z,998.6
2023-03-08T03:51:01.142Z,998.59
2023-03-08T03:52:01.165Z,998.56
2023-03-08T03:53:01.052Z,998.55
2023-03-08T03:54:01.163Z,998.61
2023-03-08T03:55:01.175Z,998.6
2023-03-08T03:56:01.087Z,998.66
2023-03-08T03:57:01.088Z,998.73
2023-03-08T03:58:01.480Z,998.74
2023-03-08T03:59:01.249Z,998.78
2023-03-08T04:00:01.104Z,998.82
2023-03-08T04:01:01.148Z,998.88
2023-03-08T04:02:01.114Z,998.85
2023-03-08T04:03:01.156Z,998.91
2023-03-08T04:04:01.141Z,998.95
2023-03-08T04:05:01.398Z,999
2023-03-08T04:06:01.156Z,999
2023-03-08T04:07:02.061Z,999.04
2023-03-08T04:08:01.162Z,999.02
2023-03-08T04:09:01.060Z,999
2023-03-08T04:10:01.185Z,999.03
2023-03-08T04:11:01.170Z,999.06
2023-03-08T04:12:01.172Z,999.11
2023-03-08T04:13:01.804Z,999.09
2023-03-08T04:14:01.493Z,999.09
2023-03-08T04:15:01.203Z,999.1
2023-03-08T04:16:01.557Z,999.11
2023-03-08T04:17:01.502Z,999.12
2023-03-08T04:18:01.104Z,999.07
2023-03-08T04:19:01.118Z,999.1
2023-03-08T04:20:01.147Z,999.1
2023-03-08T04:21:01.122Z,999.09
2023-03-08T04:22:01.131Z,999.05
2023-03-08T04:23:00.823Z,999.04
2023-03-08T04:24:01.953Z,999.05
2023-03-08T04:25:01.466Z,999.02
2023-03-08T04:26:02.244Z,999
2023-03-08T04:27:01.327Z,998.98
2023-03-08T04:28:03.408Z,998.97
2023-03-08T04:29:01.985Z,998.98
2023-03-08T04:30:02.636Z,999.01
2023-03-08T04:31:01.140Z,998.98
2023-03-08T04:32:01.288Z,998.99
2023-03-08T04:33:06.889Z,998.97
2023-03-08T04:34:01.113Z,998.99
2023-03-08T04:35:01.080Z,998.98
2023-03-08T04:36:01.151Z,999.02
2023-03-08T04:37:01.117Z,999
2023-03-08T04:38:08.559Z,999.01
2023-03-08T04:39:01.127Z,998.95
2023-03-08T04:40:01.176Z,998.95
2023-03-08T04:41:01.407Z,998.95
2023-03-08T04:42:01.552Z,998.97
2023-03-08T04:43:12.700Z,998.97
2023-03-08T04:44:01.764Z,998.94
2023-03-08T04:45:01.357Z,998.94
2023-03-08T04:46:02.094Z,998.95
2023-03-08T04:47:01.951Z,998.98
2023-03-08T04:48:14.305Z,999.02
2023-03-08T04:49:01.149Z,998.96
2023-03-08T04:50:01.527Z,998.98
2023-03-08T04:51:01.814Z,998.97
2023-03-08T04:52:01.907Z,998.93
2023-03-08T04:53:17.423Z,998.93
2023-03-08T04:54:01.160Z,998.96
2023-03-08T04:55:01.142Z,998.96
2023-03-08T04:56:01.132Z,998.96
2023-03-08T04:57:01.170Z,998.95
2023-03-08T04:58:01.149Z,998.98
2023-03-08T04:59:01.342Z,998.99
2023-03-08T05:00:01.168Z,998.99
2023-03-08T05:01:01.207Z,999.03
2023-03-08T05:02:01.230Z,999.03
2023-03-08T05:03:02.892Z,999.05
2023-03-08T05:04:02.224Z,999.03
2023-03-08T05:05:01.134Z,999.03
2023-03-08T05:06:01.106Z,999.01
2023-03-08T05:07:01.110Z,999.07
2023-03-08T05:08:01.114Z,999.02
2023-03-08T05:09:01.452Z,998.98
2023-03-08T05:10:01.069Z,999
2023-03-08T05:11:01.336Z,998.94
2023-03-08T05:12:01.162Z,998.94
2023-03-08T05:13:01.143Z,998.93
2023-03-08T05:14:01.166Z,998.95
2023-03-08T05:15:01.578Z,998.95
2023-03-08T05:16:01.206Z,998.97
2023-03-08T05:17:02.565Z,998.95
2023-03-08T05:18:01.090Z,998.96
2023-03-08T05:19:01.106Z,998.92
2023-03-08T05:20:01.098Z,999.03
2023-03-08T05:21:01.112Z,999.01
2023-03-08T05:22:01.319Z,998.98
2023-03-08T05:23:01.592Z,999.05
2023-03-08T05:24:01.068Z,999.03
2023-03-08T05:25:01.148Z,999.01
2023-03-08T05:26:03.290Z,999.07
2023-03-08T05:27:01.068Z,999.15
2023-03-08T05:28:01.214Z,999.2
2023-03-08T05:29:01.526Z,999.2
2023-03-08T05:30:02.494Z,999.16
2023-03-08T05:31:04.408Z,999.18
2023-03-08T05:32:04.567Z,999.17
2023-03-08T05:33:01.218Z,999.17
2023-03-08T05:34:01.520Z,999.18
2023-03-08T05:35:01.127Z,999.19
2023-03-08T05:36:02.079Z,999.13
2023-03-08T05:37:01.500Z,999.15
2023-03-08T05:38:01.210Z,999.15
2023-03-08T05:39:02.280Z,999.12
2023-03-08T05:40:01.653Z,999.16
2023-03-08T05:41:02.035Z,999.11
2023-03-08T05:42:01.077Z,999.16
2023-03-08T05:43:01.121Z,999.19
2023-03-08T05:44:01.126Z,999.14
2023-03-08T05:45:01.769Z,999.15
2023-03-08T05:46:01.747Z,999.18
2023-03-08T05:47:01.161Z,999.2
2023-03-08T05:48:00.942Z,999.2
2023-03-08T05:49:00.645Z,999.22
2023-03-08T05:50:00.315Z,999.25
2023-03-08T05:51:00.074Z,999.25
2023-03-08T05:51:59.741Z,999.23
2023-03-08T05:53:03.361Z,999.26
2023-03-08T05:54:01.844Z,999.26
2023-03-08T05:55:01.279Z,999.27
2023-03-08T05:56:02.022Z,999.25
2023-03-08T05:57:01.113Z,999.32
2023-03-08T05:58:01.165Z,999.34
2023-03-08T05:59:01.126Z,999.28
2023-03-08T06:00:02.580Z,999.31
2023-03-08T06:01:04.018Z,999.28
2023-03-08T06:02:01.076Z,999.33
2023-03-08T06:03:01.767Z,999.29
2023-03-08T06:04:01.170Z,999.4
2023-03-08T06:05:01.190Z,999.33
2023-03-08T06:06:01.188Z,999.39
2023-03-08T06:07:00.868Z,999.4
2023-03-08T06:08:01.087Z,999.4
2023-03-08T06:09:03.412Z,999.38
2023-03-08T06:10:01.904Z,999.4
2023-03-08T06:11:02.130Z,999.37
2023-03-08T06:12:01.102Z,999.44
2023-03-08T06:13:01.112Z,999.44
2023-03-08T06:14:05.941Z,999.44
2023-03-08T06:15:01.123Z,999.47
2023-03-08T06:16:01.216Z,999.43
2023-03-08T06:17:01.173Z,999.47
2023-03-08T06:18:01.060Z,999.49
2023-03-08T06:19:08.397Z,999.5
2023-03-08T06:20:01.136Z,999.59
2023-03-08T06:21:01.210Z,999.58
2023-03-08T06:22:01.054Z,999.64
2023-03-08T06:23:01.058Z,999.64
2023-03-08T06:24:11.402Z,999.65
2023-03-08T06:25:00.878Z,999.63
2023-03-08T06:26:01.095Z,999.64
2023-03-08T06:27:00.772Z,999.63
2023-03-08T06:28:00.556Z,999.67
2023-03-08T06:29:13.234Z,999.66
2023-03-08T06:30:01.853Z,999.66
2023-03-08T06:31:04.349Z,999.72
2023-03-08T06:32:02.195Z,999.71
2023-03-08T06:33:01.438Z,999.73
2023-03-08T06:34:16.791Z,999.79
2023-03-08T06:35:02.927Z,999.73
2023-03-08T06:36:01.529Z,999.75
2023-03-08T06:37:01.164Z,999.72
2023-03-08T06:38:01.215Z,999.75
2023-03-08T06:39:01.091Z,999.75
2023-03-08T06:40:00.864Z,999.85
2023-03-08T06:41:00.501Z,999.79
2023-03-08T06:42:00.151Z,999.77
2023-03-08T06:42:59.833Z,999.74
2023-03-08T06:44:01.521Z,999.8
2023-03-08T06:45:01.122Z,999.8
2023-03-08T06:46:01.144Z,999.82
2023-03-08T06:47:00.817Z,999.82
2023-03-08T06:48:00.521Z,999.78
2023-03-08T06:49:00.194Z,999.77
2023-03-08T06:50:00.183Z,999.74
2023-03-08T06:51:00.343Z,999.71
2023-03-08T06:52:00.022Z,999.7
2023-03-08T06:52:59.618Z,999.62
2023-03-08T06:54:01.402Z,999.62
2023-03-08T06:55:01.065Z,999.62
2023-03-08T06:56:01.103Z,999.66
2023-03-08T06:57:01.096Z,999.66
2023-03-08T06:58:01.081Z,999.62
2023-03-08T06:59:01.250Z,999.63
2023-03-08T07:00:01.185Z,999.62
2023-03-08T07:01:01.214Z,999.59
2023-03-08T07:02:01.130Z,999.54
2023-03-08T07:03:01.200Z,999.63
2023-03-08T07:04:01.606Z,999.53
2023-03-08T07:05:01.870Z,999.55
2023-03-08T07:06:01.141Z,999.61
2023-03-08T07:07:00.856Z,999.57
2023-03-08T07:08:01.140Z,999.47
2023-03-08T07:09:01.157Z,999.49
2023-03-08T07:10:01.169Z,999.47
2023-03-08T07:11:01.565Z,999.54
2023-03-08T07:12:01.488Z,999.58
2023-03-08T07:13:02.287Z,999.6
2023-03-08T07:14:01.183Z,999.59
2023-03-08T07:15:01.100Z,999.67
2023-03-08T07:16:01.188Z,999.63
2023-03-08T07:17:01.907Z,999.64
2023-03-08T07:18:01.077Z,999.64
2023-03-08T07:19:01.363Z,999.61
2023-03-08T07:20:01.726Z,999.62
2023-03-08T07:21:01.499Z,999.66
2023-03-08T07:22:01.505Z,999.66
2023-03-08T07:23:01.180Z,999.68
2023-03-08T07:24:01.142Z,999.65
2023-03-08T07:25:01.839Z,999.74
2023-03-08T07:26:01.164Z,999.75
2023-03-08T07:27:00.757Z,999.73
2023-03-08T07:28:00.342Z,999.77
2023-03-08T07:28:59.923Z,999.78
2023-03-08T07:29:59.521Z,999.75
2023-03-08T07:31:01.325Z,999.82
2023-03-08T07:32:01.130Z,999.82
2023-03-08T07:33:01.249Z,999.77
2023-03-08T07:34:01.222Z,999.81
2023-03-08T07:35:01.107Z,999.8
2023-03-08T07:36:01.286Z,999.78
2023-03-08T07:37:01.491Z,999.83
2023-03-08T07:38:02.136Z,999.82
2023-03-08T07:39:01.139Z,999.87
2023-03-08T07:40:01.140Z,999.84
2023-03-08T07:41:01.190Z,999.91
2023-03-08T07:42:01.160Z,999.89
2023-03-08T07:43:01.148Z,999.91
2023-03-08T07:44:01.060Z,999.9
2023-03-08T07:45:01.565Z,999.93
2023-03-08T07:46:01.279Z,999.92
2023-03-08T07:47:01.210Z,999.95
2023-03-08T07:48:01.099Z,999.9
2023-03-08T07:49:01.112Z,999.95
2023-03-08T07:50:01.291Z,999.95
2023-03-08T07:51:01.510Z,999.93
2023-03-08T07:52:01.510Z,999.86
2023-03-08T07:53:01.122Z,999.88
2023-03-08T07:54:01.139Z,999.88
2023-03-08T07:55:04.083Z,999.83
2023-03-08T07:56:01.065Z,999.89
2023-03-08T07:57:01.054Z,999.85
2023-03-08T07:58:01.074Z,999.85
2023-03-08T07:59:01.167Z,999.76
2023-03-08T08:00:06.180Z,999.8
2023-03-08T08:01:01.108Z,999.79
2023-03-08T08:02:01.070Z,999.77
2023-03-08T08:03:01.149Z,999.77
2023-03-08T08:04:01.101Z,999.72
2023-03-08T08:05:09.917Z,999.77
2023-03-08T08:06:01.628Z,999.77
2023-03-08T08:07:00.819Z,999.72
2023-03-08T08:08:00.586Z,999.71
2023-03-08T08:09:00.185Z,999.7
2023-03-08T08:10:11.921Z,999.73
2023-03-08T08:11:01.149Z,999.67
2023-03-08T08:12:01.144Z,999.74
2023-03-08T08:13:01.152Z,999.71
2023-03-08T08:14:01.168Z,999.72
2023-03-08T08:15:16.228Z,999.73
2023-03-08T08:16:01.264Z,999.75
2023-03-08T08:17:01.068Z,999.74
2023-03-08T08:18:01.071Z,999.72
2023-03-08T08:19:01.098Z,999.73
2023-03-08T08:20:01.148Z,999.73
2023-03-08T08:21:01.442Z,999.64
2023-03-08T08:22:01.098Z,999.65
2023-03-08T08:23:01.490Z,999.63
2023-03-08T08:24:01.485Z,999.68
2023-03-08T08:25:01.919Z,999.67
2023-03-08T08:26:01.223Z,999.67
2023-03-08T08:27:00.920Z,999.63
2023-03-08T08:28:01.179Z,999.63
2023-03-08T08:29:01.519Z,999.61
2023-03-08T08:30:01.148Z,999.6
2023-03-08T08:31:01.256Z,999.59
2023-03-08T08:32:01.562Z,999.59
2023-03-08T08:33:01.159Z,999.58
2023-03-08T08:34:01.064Z,999.58
2023-03-08T08:35:01.798Z,999.53
2023-03-08T08:36:01.128Z,999.53
2023-03-08T08:37:01.090Z,999.54
2023-03-08T08:38:01.098Z,999.54
2023-03-08T08:39:01.116Z,999.55
2023-03-08T08:40:01.111Z,999.55
2023-03-08T08:41:01.507Z,999.48
2023-03-08T08:42:01.128Z,999.43
2023-03-08T08:43:01.130Z,999.5
2023-03-08T08:44:01.141Z,999.49
2023-03-08T08:45:01.454Z,999.49
2023-03-08T08:46:02.114Z,999.43
2023-03-08T08:47:02.573Z,999.37
2023-03-08T08:48:01.089Z,999.41
2023-03-08T08:49:01.182Z,999.39
2023-03-08T08:50:01.069Z,999.38
2023-03-08T08:51:01.506Z,999.38
2023-03-08T08:52:01.468Z,999.36
2023-03-08T08:53:02.225Z,999.36
2023-03-08T08:54:01.399Z,999.4
2023-03-08T08:55:02.483Z,999.32
2023-03-08T08:56:01.126Z,999.3
2023-03-08T08:57:01.059Z,999.35
2023-03-08T08:58:01.115Z,999.27
2023-03-08T08:59:01.256Z,999.29
2023-03-08T09:00:01.830Z,999.33
2023-03-08T09:01:02.054Z,999.24
2023-03-08T09:02:02.303Z,999.22
2023-03-08T09:03:01.453Z,999.23
2023-03-08T09:04:02.025Z,999.19
2023-03-08T09:05:04.493Z,999.29
2023-03-08T09:06:01.453Z,999.26
2023-03-08T09:07:01.089Z,999.23
2023-03-08T09:08:01.110Z,999.21
2023-03-08T09:09:01.091Z,999.21
2023-03-08T09:10:01.117Z,999.2
2023-03-08T09:11:01.466Z,999.19
2023-03-08T09:12:01.448Z,999.22
2023-03-08T09:13:02.138Z,999.23
2023-03-08T09:14:02.130Z,999.2
2023-03-08T09:15:01.498Z,999.24
2023-03-08T09:16:01.151Z,999.23
2023-03-08T09:17:01.216Z,999.23
2023-03-08T09:18:01.067Z,999.21
2023-03-08T09:19:00.982Z,999.23
2023-03-08T09:20:00.700Z,999.19
2023-03-08T09:21:00.460Z,999.14
2023-03-08T09:22:00.161Z,999.19
2023-03-08T09:23:00.018Z,999.19
2023-03-08T09:23:59.744Z,999.17
2023-03-08T09:25:01.550Z,999.16
2023-03-08T09:26:02.590Z,999.14
2023-03-08T09:27:01.207Z,999.12
2023-03-08T09:28:01.105Z,999.12
2023-03-08T09:29:01.103Z,999.05
2023-03-08T09:30:01.113Z,999.11
2023-03-08T09:31:01.230Z,999.06
2023-03-08T09:32:01.265Z,999.07
2023-03-08T09:33:03.281Z,999.05
2023-03-08T09:34:01.183Z,999.02
2023-03-08T09:35:01.157Z,999.04
2023-03-08T09:36:01.254Z,999.05
2023-03-08T09:37:01.223Z,998.99
2023-03-08T09:38:01.161Z,999
2023-03-08T09:39:01.190Z,999.01
2023-03-08T09:40:01.411Z,999
2023-03-08T09:41:02.465Z,999.02
2023-03-08T09:42:01.500Z,998.96
2023-03-08T09:43:01.137Z,998.99
2023-03-08T09:44:01.821Z,998.97
2023-03-08T09:45:01.107Z,998.96
2023-03-08T09:46:05.333Z,998.93
2023-03-08T09:47:00.749Z,998.9
2023-03-08T09:48:00.493Z,998.91
2023-03-08T09:49:00.219Z,998.87
2023-03-08T09:49:59.895Z,998.85
2023-03-08T09:51:07.833Z,998.9
2023-03-08T09:52:01.165Z,998.92
2023-03-08T09:53:01.159Z,998.94
2023-03-08T09:54:01.084Z,998.91
2023-03-08T09:55:01.440Z,998.9
2023-03-08T09:56:10.889Z,998.86
2023-03-08T09:57:01.879Z,998.86
2023-03-08T09:58:02.381Z,998.89
2023-03-08T09:59:01.341Z,998.93
2023-03-08T10:00:02.210Z,998.86
2023-03-08T10:01:13.518Z,998.85
2023-03-08T10:02:01.979Z,998.88
2023-03-08T10:03:01.186Z,998.88
2023-03-08T10:04:01.270Z,998.83
2023-03-08T10:05:12.345Z,998.82
2023-03-08T10:06:16.649Z,998.83
2023-03-08T10:07:00.753Z,998.82
2023-03-08T10:08:00.424Z,998.8
2023-03-08T10:09:00.111Z,998.83
2023-03-08T10:09:59.700Z,998.79
2023-03-08T10:11:01.574Z,998.75
2023-03-08T10:12:02.420Z,998.76
2023-03-08T10:13:01.275Z,998.74
2023-03-08T10:14:01.883Z,998.71
2023-03-08T10:15:02.125Z,998.78
2023-03-08T10:16:01.097Z,998.65
2023-03-08T10:17:01.279Z,998.68
2023-03-08T10:18:04.040Z,998.64
2023-03-08T10:19:01.138Z,998.64
2023-03-08T10:20:01.357Z,998.72
2023-03-08T10:21:01.268Z,998.64
2023-03-08T10:22:01.166Z,998.61
2023-03-08T10:23:01.142Z,998.55
2023-03-08T10:24:01.137Z,998.63
2023-03-08T10:25:01.389Z,998.58
2023-03-08T10:26:01.349Z,998.58
2023-03-08T10:27:02.673Z,998.53
2023-03-08T10:28:02.401Z,998.56
2023-03-08T10:29:01.080Z,998.54
2023-03-08T10:30:01.079Z,998.56
2023-03-08T10:31:01.156Z,998.51
2023-03-08T10:32:01.074Z,998.55
2023-03-08T10:33:01.097Z,998.44
2023-03-08T10:34:01.763Z,998.45
2023-03-08T10:35:01.223Z,998.48
2023-03-08T10:36:02.506Z,998.43
2023-03-08T10:37:01.560Z,998.48
2023-03-08T10:38:01.149Z,998.49
2023-03-08T10:39:02.964Z,998.51
2023-03-08T10:40:01.474Z,998.46
2023-03-08T10:41:01.248Z,998.49
2023-03-08T10:42:00.971Z,998.51
2023-03-08T10:43:00.655Z,998.5
2023-03-08T10:44:00.639Z,998.44
2023-03-08T10:45:00.653Z,998.42
2023-03-08T10:46:00.709Z,998.46
2023-03-08T10:47:00.371Z,998.44
2023-03-08T10:48:00.070Z,998.41
2023-03-08T10:48:59.861Z,998.42
2023-03-08T10:50:01.472Z,998.41
2023-03-08T10:51:01.124Z,998.39
2023-03-08T10:52:01.152Z,998.4
2023-03-08T10:53:01.116Z,998.35
2023-03-08T10:54:01.211Z,998.37
2023-03-08T10:55:01.225Z,998.32
2023-03-08T10:56:01.375Z,998.33
2023-03-08T10:57:02.179Z,998.35
2023-03-08T10:58:01.174Z,998.33
2023-03-08T10:59:01.162Z,998.31
2023-03-08T11:00:01.169Z,998.36
2023-03-08T11:01:01.146Z,998.28
2023-03-08T11:02:01.075Z,998.27
2023-03-08T11:03:01.078Z,998.28
2023-03-08T11:04:01.467Z,998.28
2023-03-08T11:05:02.105Z,998.28
2023-03-08T11:06:02.312Z,998.25
2023-03-08T11:07:01.016Z,998.23
2023-03-08T11:08:01.159Z,998.25
2023-03-08T11:09:01.113Z,998.18
2023-03-08T11:10:01.062Z,998.19
2023-03-08T11:11:01.228Z,998.16
2023-03-08T11:12:02.582Z,998.13
2023-03-08T11:13:01.959Z,998.13
2023-03-08T11:14:02.255Z,998.1
2023-03-08T11:15:01.168Z,998.1
2023-03-08T11:16:01.233Z,998.08
2023-03-08T11:17:01.071Z,998.01
2023-03-08T11:18:01.063Z,998.07
2023-03-08T11:19:01.127Z,998.02
2023-03-08T11:20:01.083Z,998.02
2023-03-08T11:21:01.086Z,997.95
2023-03-08T11:22:01.549Z,997.93
2023-03-08T11:23:02.032Z,997.89
2023-03-08T11:24:02.062Z,997.89
2023-03-08T11:25:01.159Z,997.88
2023-03-08T11:26:01.164Z,997.83
2023-03-08T11:27:00.648Z,997.85
2023-03-08T11:28:00.335Z,997.78
2023-03-08T11:29:00.224Z,997.82
2023-03-08T11:30:00.012Z,997.74
2023-03-08T11:30:59.818Z,997.8
2023-03-08T11:32:01.759Z,997.78
2023-03-08T11:33:16.800Z,997.69
2023-03-08T11:34:02.061Z,997.7
2023-03-08T11:35:01.097Z,997.7
2023-03-08T11:36:01.247Z,997.75
2023-03-08T11:37:05.423Z,997.68
2023-03-08T11:38:01.498Z,997.63
2023-03-08T11:39:01.494Z,997.64
2023-03-08T11:40:01.609Z,997.67
2023-03-08T11:41:01.904Z,997.63
2023-03-08T11:42:08.068Z,997.58
2023-03-08T11:43:01.132Z,997.6
2023-03-08T11:44:01.133Z,997.57
2023-03-08T11:45:01.150Z,997.5
2023-03-08T11:46:01.140Z,997.49
2023-03-08T11:47:09.680Z,997.5
2023-03-08T11:48:01.268Z,997.45
2023-03-08T11:49:02.052Z,997.43
2023-03-08T11:50:02.198Z,997.41
2023-03-08T11:51:01.305Z,997.41
2023-03-08T11:52:13.196Z,997.34
2023-03-08T11:53:02.239Z,997.38
2023-03-08T11:54:01.226Z,997.38
2023-03-08T11:55:01.229Z,997.33
2023-03-08T11:56:01.920Z,997.26
2023-03-08T11:57:15.430Z,997.22
2023-03-08T11:58:02.121Z,997.23
2023-03-08T11:59:02.176Z,997.21
2023-03-08T12:00:01.174Z,997.19
2023-03-08T12:01:01.145Z,997.18
2023-03-08T12:02:01.142Z,997.16
2023-03-08T12:03:01.064Z,997.16
2023-03-08T12:04:03.822Z,997.13
2023-03-08T12:05:01.304Z,997.14
2023-03-08T12:06:01.290Z,997.07
2023-03-08T12:07:00.962Z,997.08
2023-03-08T12:08:01.525Z,997.07
2023-03-08T12:09:01.130Z,997.02
2023-03-08T12:10:01.151Z,997
2023-03-08T12:11:01.113Z,996.95
2023-03-08T12:12:03.338Z,996.97
2023-03-08T12:13:01.130Z,996.93
2023-03-08T12:14:01.194Z,996.93
2023-03-08T12:15:01.372Z,996.92
2023-03-08T12:16:01.525Z,996.89
2023-03-08T12:17:01.838Z,996.93
2023-03-08T12:18:01.143Z,996.9
2023-03-08T12:19:01.145Z,996.84
2023-03-08T12:20:01.151Z,996.84
2023-03-08T12:21:01.250Z,996.81
2023-03-08T12:22:01.419Z,996.77
2023-03-08T12:23:01.197Z,996.79
2023-03-08T12:24:03.870Z,996.79
2023-03-08T12:25:01.895Z,996.74
2023-03-08T12:26:01.056Z,996.7
2023-03-08T12:27:00.783Z,996.68
2023-03-08T12:28:01.293Z,996.67
2023-03-08T12:29:01.730Z,996.68
2023-03-08T12:30:01.169Z,996.68
2023-03-08T12:31:02.099Z,996.68